sensor_id;sensor_type;location;lat;lon;timestamp;P1;durP1;ratioP1;P2;durP2;ratioP2
52104;SDS011;38103;42.776;23.112;2023-02-28T00:01:28;13.52;;;5.28;;
52104;SDS011;38103;42.776;23.112;2023-02-28T00:03:54;12.48;;;5.45;;
52104;SDS011;38103;42.776;23.112;2023-02-28T00:06:19;20.63;;;7.82;;
52104;SDS011;38103;42.776;23.112;2023-02-28T00:08:45;19.95;;;8.50;;
52104;SDS011;38103;42.776;23.112;2023-02-28T00:11:12;22.30;;;9.93;;
52104;SDS011;38103;42.776;23.112;2023-02-28T00:13:40;22.60;;;10.27;;
52104;SDS011;38103;42.776;23.112;2023-02-28T00:16:10;26.27;;;11.60;;
52104;SDS011;38103;42.776;23.112;2023-02-28T00:18:38;24.30;;;11.50;;
52104;SDS011;38103;42.776;23.112;2023-02-28T00:21:04;25.00;;;12.00;;
52104;SDS011;38103;42.776;23.112;2023-02-28T00:23:30;26.50;;;11.15;;
52104;SDS011;38103;42.776;23.112;2023-02-28T00:25:56;27.90;;;11.88;;
52104;SDS011;38103;42.776;23.112;2023-02-28T00:28:21;33.78;;;12.27;;
52104;SDS011;38103;42.776;23.112;2023-02-28T00:30:48;51.40;;;13.82;;
52104;SDS011;38103;42.776;23.112;2023-02-28T00:33:13;308.02;;;18.88;;
52104;SDS011;38103;42.776;23.112;2023-02-28T00:35:39;196.02;;;14.13;;
52104;SDS011;38103;42.776;23.112;2023-02-28T00:38:05;135.40;;;13.77;;
52104;SDS011;38103;42.776;23.112;2023-02-28T00:40:30;159.98;;;14.82;;
52104;SDS011;38103;42.776;23.112;2023-02-28T00:42:56;102.65;;;13.50;;
52104;SDS011;38103;42.776;23.112;2023-02-28T00:45:21;45.10;;;13.60;;
52104;SDS011;38103;42.776;23.112;2023-02-28T00:47:46;37.42;;;14.32;;
52104;SDS011;38103;42.776;23.112;2023-02-28T00:50:15;74.75;;;15.15;;
52104;SDS011;38103;42.776;23.112;2023-02-28T00:52:45;36.92;;;14.88;;
52104;SDS011;38103;42.776;23.112;2023-02-28T00:55:11;33.92;;;14.60;;
52104;SDS011;38103;42.776;23.112;2023-02-28T00:57:36;30.55;;;13.65;;
52104;SDS011;38103;42.776;23.112;2023-02-28T01:00:02;33.80;;;14.82;;
52104;SDS011;38103;42.776;23.112;2023-02-28T01:02:28;35.90;;;15.13;;
52104;SDS011;38103;42.776;23.112;2023-02-28T01:04:54;37.13;;;16.05;;
52104;SDS011;38103;42.776;23.112;2023-02-28T01:07:19;38.90;;;15.77;;
52104;SDS011;38103;42.776;23.112;2023-02-28T01:09:45;33.08;;;14.45;;
52104;SDS011;38103;42.776;23.112;2023-02-28T01:12:10;43.38;;;15.25;;
52104;SDS011;38103;42.776;23.112;2023-02-28T01:14:35;98.65;;;15.70;;
52104;SDS011;38103;42.776;23.112;2023-02-28T01:17:01;38.65;;;15.05;;
52104;SDS011;38103;42.776;23.112;2023-02-28T01:19:27;38.65;;;16.42;;
52104;SDS011;38103;42.776;23.112;2023-02-28T01:21:52;31.10;;;14.35;;
52104;SDS011;38103;42.776;23.112;2023-02-28T01:24:17;32.30;;;13.88;;
52104;SDS011;38103;42.776;23.112;2023-02-28T01:26:43;35.13;;;14.80;;
52104;SDS011;38103;42.776;23.112;2023-02-28T01:29:08;33.28;;;14.18;;
52104;SDS011;38103;42.776;23.112;2023-02-28T01:31:34;40.08;;;14.73;;
52104;SDS011;38103;42.776;23.112;2023-02-28T01:33:59;31.90;;;13.85;;
52104;SDS011;38103;42.776;23.112;2023-02-28T01:36:25;32.33;;;13.60;;
52104;SDS011;38103;42.776;23.112;2023-02-28T01:38:51;28.73;;;12.80;;
52104;SDS011;38103;42.776;23.112;2023-02-28T01:41:18;27.48;;;13.07;;
52104;SDS011;38103;42.776;23.112;2023-02-28T01:43:52;26.17;;;12.20;;
52104;SDS011;38103;42.776;23.112;2023-02-28T01:46:28;26.48;;;12.43;;
52104;SDS011;38103;42.776;23.112;2023-02-28T01:48:58;49.95;;;21.77;;
52104;SDS011;38103;42.776;23.112;2023-02-28T01:53:56;41.47;;;19.42;;
52104;SDS011;38103;42.776;23.112;2023-02-28T01:56:28;35.58;;;16.85;;
52104;SDS011;38103;42.776;23.112;2023-02-28T01:58:57;30.98;;;14.48;;
52104;SDS011;38103;42.776;23.112;2023-02-28T02:01:23;31.38;;;15.77;;
52104;SDS011;38103;42.776;23.112;2023-02-28T02:03:53;29.52;;;13.75;;
52104;SDS011;38103;42.776;23.112;2023-02-28T02:06:22;39.13;;;17.25;;
52104;SDS011;38103;42.776;23.112;2023-02-28T02:08:50;37.92;;;17.45;;
52104;SDS011;38103;42.776;23.112;2023-02-28T02:11:17;30.10;;;13.48;;
52104;SDS011;38103;42.776;23.112;2023-02-28T02:19:39;24.35;;;11.20;;
52104;SDS011;38103;42.776;23.112;2023-02-28T02:25:18;24.85;;;11.05;;
52104;SDS011;38103;42.776;23.112;2023-02-28T02:30:40;22.63;;;10.50;;
52104;SDS011;38103;42.776;23.112;2023-02-28T02:36:23;26.88;;;12.02;;
52104;SDS011;38103;42.776;23.112;2023-02-28T02:41:40;28.98;;;11.20;;
52104;SDS011;38103;42.776;23.112;2023-02-28T02:46:43;25.88;;;10.55;;
52104;SDS011;38103;42.776;23.112;2023-02-28T02:49:13;25.25;;;11.20;;
52104;SDS011;38103;42.776;23.112;2023-02-28T02:51:44;36.05;;;12.00;;
52104;SDS011;38103;42.776;23.112;2023-02-28T02:54:22;40.72;;;13.80;;
52104;SDS011;38103;42.776;23.112;2023-02-28T02:56:54;35.67;;;12.95;;
52104;SDS011;38103;42.776;23.112;2023-02-28T02:59:23;42.42;;;13.25;;
52104;SDS011;38103;42.776;23.112;2023-02-28T03:01:51;41.03;;;13.60;;
52104;SDS011;38103;42.776;23.112;2023-02-28T03:04:20;46.45;;;12.70;;
52104;SDS011;38103;42.776;23.112;2023-02-28T03:06:47;46.30;;;12.40;;
52104;SDS011;38103;42.776;23.112;2023-02-28T03:09:19;50.38;;;13.00;;
52104;SDS011;38103;42.776;23.112;2023-02-28T03:11:48;64.03;;;12.90;;
52104;SDS011;38103;42.776;23.112;2023-02-28T03:16:54;76.68;;;14.60;;
52104;SDS011;38103;42.776;23.112;2023-02-28T03:19:33;66.55;;;14.95;;
52104;SDS011;38103;42.776;23.112;2023-02-28T03:22:13;52.83;;;15.20;;
52104;SDS011;38103;42.776;23.112;2023-02-28T03:25:08;44.50;;;13.48;;
52104;SDS011;38103;42.776;23.112;2023-02-28T03:33:01;64.97;;;14.27;;
52104;SDS011;38103;42.776;23.112;2023-02-28T03:35:34;61.58;;;14.77;;
52104;SDS011;38103;42.776;23.112;2023-02-28T03:38:15;60.00;;;14.50;;
52104;SDS011;38103;42.776;23.112;2023-02-28T03:40:50;75.22;;;14.57;;
52104;SDS011;38103;42.776;23.112;2023-02-28T03:43:22;69.05;;;15.05;;
52104;SDS011;38103;42.776;23.112;2023-02-28T03:45:52;75.85;;;13.63;;
52104;SDS011;38103;42.776;23.112;2023-02-28T03:50:49;55.75;;;13.35;;
52104;SDS011;38103;42.776;23.112;2023-02-28T03:56:02;52.55;;;12.85;;
52104;SDS011;38103;42.776;23.112;2023-02-28T04:01:24;105.47;;;13.40;;
52104;SDS011;38103;42.776;23.112;2023-02-28T04:04:10;120.15;;;13.90;;
52104;SDS011;38103;42.776;23.112;2023-02-28T04:06:37;224.48;;;16.33;;
52104;SDS011;38103;42.776;23.112;2023-02-28T04:09:04;352.83;;;17.27;;
52104;SDS011;38103;42.776;23.112;2023-02-28T04:14:04;288.00;;;19.77;;
52104;SDS011;38103;42.776;23.112;2023-02-28T04:16:31;282.40;;;20.42;;
52104;SDS011;38103;42.776;23.112;2023-02-28T04:18:57;268.00;;;17.63;;
52104;SDS011;38103;42.776;23.112;2023-02-28T04:21:37;193.85;;;17.73;;
52104;SDS011;38103;42.776;23.112;2023-02-28T04:24:04;371.80;;;18.38;;
52104;SDS011;38103;42.776;23.112;2023-02-28T04:26:31;258.75;;;16.33;;
52104;SDS011;38103;42.776;23.112;2023-02-28T04:28:58;191.85;;;18.00;;
52104;SDS011;38103;42.776;23.112;2023-02-28T04:31:24;274.95;;;20.50;;
52104;SDS011;38103;42.776;23.112;2023-02-28T04:33:49;151.85;;;17.27;;
52104;SDS011;38103;42.776;23.112;2023-02-28T04:36:14;284.45;;;19.13;;
52104;SDS011;38103;42.776;23.112;2023-02-28T04:38:42;160.32;;;16.83;;
52104;SDS011;38103;42.776;23.112;2023-02-28T04:41:08;119.70;;;16.30;;
52104;SDS011;38103;42.776;23.112;2023-02-28T04:43:33;153.75;;;17.05;;
52104;SDS011;38103;42.776;23.112;2023-02-28T04:46:01;111.88;;;15.88;;
52104;SDS011;38103;42.776;23.112;2023-02-28T04:48:28;118.68;;;17.33;;
52104;SDS011;38103;42.776;23.112;2023-02-28T04:50:54;104.65;;;17.08;;
52104;SDS011;38103;42.776;23.112;2023-02-28T04:53:20;94.50;;;15.90;;
52104;SDS011;38103;42.776;23.112;2023-02-28T04:55:45;58.13;;;15.45;;
52104;SDS011;38103;42.776;23.112;2023-02-28T04:58:11;116.15;;;16.08;;
52104;SDS011;38103;42.776;23.112;2023-02-28T05:00:38;124.40;;;16.83;;
52104;SDS011;38103;42.776;23.112;2023-02-28T05:03:03;118.85;;;16.25;;
52104;SDS011;38103;42.776;23.112;2023-02-28T05:05:29;127.28;;;18.48;;
52104;SDS011;38103;42.776;23.112;2023-02-28T05:07:54;108.05;;;16.92;;
52104;SDS011;38103;42.776;23.112;2023-02-28T05:10:20;85.60;;;17.77;;
52104;SDS011;38103;42.776;23.112;2023-02-28T05:12:46;115.95;;;16.85;;
52104;SDS011;38103;42.776;23.112;2023-02-28T05:15:13;116.07;;;16.60;;
52104;SDS011;38103;42.776;23.112;2023-02-28T05:17:39;191.85;;;18.08;;
52104;SDS011;38103;42.776;23.112;2023-02-28T05:20:05;139.48;;;18.15;;
52104;SDS011;38103;42.776;23.112;2023-02-28T05:22:31;182.88;;;19.02;;
52104;SDS011;38103;42.776;23.112;2023-02-28T05:24:57;176.00;;;17.55;;
52104;SDS011;38103;42.776;23.112;2023-02-28T05:27:22;246.30;;;20.88;;
52104;SDS011;38103;42.776;23.112;2023-02-28T05:29:48;299.20;;;22.48;;
52104;SDS011;38103;42.776;23.112;2023-02-28T05:32:13;140.38;;;20.17;;
52104;SDS011;38103;42.776;23.112;2023-02-28T05:34:39;87.30;;;20.52;;
52104;SDS011;38103;42.776;23.112;2023-02-28T05:37:06;138.63;;;22.27;;
52104;SDS011;38103;42.776;23.112;2023-02-28T05:39:36;269.85;;;28.70;;
52104;SDS011;38103;42.776;23.112;2023-02-28T05:42:02;185.93;;;29.92;;
52104;SDS011;38103;42.776;23.112;2023-02-28T05:44:27;159.18;;;21.85;;
52104;SDS011;38103;42.776;23.112;2023-02-28T05:46:52;153.85;;;21.55;;
52104;SDS011;38103;42.776;23.112;2023-02-28T05:49:18;284.83;;;22.38;;
52104;SDS011;38103;42.776;23.112;2023-02-28T05:51:43;219.85;;;18.30;;
52104;SDS011;38103;42.776;23.112;2023-02-28T05:54:09;208.05;;;17.42;;
52104;SDS011;38103;42.776;23.112;2023-02-28T05:56:34;176.32;;;18.95;;
52104;SDS011;38103;42.776;23.112;2023-02-28T05:59:00;157.32;;;17.38;;
52104;SDS011;38103;42.776;23.112;2023-02-28T06:03:57;151.50;;;19.02;;
52104;SDS011;38103;42.776;23.112;2023-02-28T06:06:26;109.35;;;16.25;;
52104;SDS011;38103;42.776;23.112;2023-02-28T06:08:52;87.90;;;17.05;;
52104;SDS011;38103;42.776;23.112;2023-02-28T06:11:17;110.60;;;15.73;;
52104;SDS011;38103;42.776;23.112;2023-02-28T06:13:44;128.65;;;17.83;;
52104;SDS011;38103;42.776;23.112;2023-02-28T06:16:10;115.47;;;16.83;;
52104;SDS011;38103;42.776;23.112;2023-02-28T06:18:36;125.22;;;18.13;;
52104;SDS011;38103;42.776;23.112;2023-02-28T06:21:02;91.45;;;16.48;;
52104;SDS011;38103;42.776;23.112;2023-02-28T06:23:27;120.13;;;17.58;;
52104;SDS011;38103;42.776;23.112;2023-02-28T06:25:53;143.77;;;19.10;;
52104;SDS011;38103;42.776;23.112;2023-02-28T06:28:18;127.05;;;20.83;;
52104;SDS011;38103;42.776;23.112;2023-02-28T06:30:44;119.45;;;19.75;;
52104;SDS011;38103;42.776;23.112;2023-02-28T06:33:09;223.50;;;22.85;;
52104;SDS011;38103;42.776;23.112;2023-02-28T06:35:35;117.57;;;22.88;;
52104;SDS011;38103;42.776;23.112;2023-02-28T06:38:00;77.20;;;22.15;;
52104;SDS011;38103;42.776;23.112;2023-02-28T06:40:25;118.78;;;23.02;;
52104;SDS011;38103;42.776;23.112;2023-02-28T06:42:51;79.68;;;22.58;;
52104;SDS011;38103;42.776;23.112;2023-02-28T06:45:17;196.13;;;25.38;;
52104;SDS011;38103;42.776;23.112;2023-02-28T06:47:42;226.77;;;26.88;;
52104;SDS011;38103;42.776;23.112;2023-02-28T06:50:10;191.55;;;27.25;;
52104;SDS011;38103;42.776;23.112;2023-02-28T06:52:37;214.90;;;28.40;;
52104;SDS011;38103;42.776;23.112;2023-02-28T06:55:06;323.60;;;32.47;;
52104;SDS011;38103;42.776;23.112;2023-02-28T06:57:33;248.80;;;30.42;;
52104;SDS011;38103;42.776;23.112;2023-02-28T07:00:00;349.58;;;32.83;;
52104;SDS011;38103;42.776;23.112;2023-02-28T07:02:28;96.25;;;27.73;;
52104;SDS011;38103;42.776;23.112;2023-02-28T07:04:53;117.32;;;39.20;;
52104;SDS011;38103;42.776;23.112;2023-02-28T07:07:19;158.27;;;34.63;;
52104;SDS011;38103;42.776;23.112;2023-02-28T07:09:44;110.53;;;29.08;;
52104;SDS011;38103;42.776;23.112;2023-02-28T07:12:10;103.93;;;30.00;;
52104;SDS011;38103;42.776;23.112;2023-02-28T07:14:36;99.00;;;28.38;;
52104;SDS011;38103;42.776;23.112;2023-02-28T07:17:02;110.63;;;27.58;;
52104;SDS011;38103;42.776;23.112;2023-02-28T07:19:27;108.05;;;29.02;;
52104;SDS011;38103;42.776;23.112;2023-02-28T07:21:53;88.65;;;26.42;;
52104;SDS011;38103;42.776;23.112;2023-02-28T07:24:18;96.03;;;27.13;;
52104;SDS011;38103;42.776;23.112;2023-02-28T07:26:44;413.20;;;212.77;;
52104;SDS011;38103;42.776;23.112;2023-02-28T07:29:09;357.35;;;167.20;;
52104;SDS011;38103;42.776;23.112;2023-02-28T07:31:34;247.85;;;109.63;;
52104;SDS011;38103;42.776;23.112;2023-02-28T07:34:00;175.85;;;78.35;;
52104;SDS011;38103;42.776;23.112;2023-02-28T07:36:25;114.88;;;41.90;;
52104;SDS011;38103;42.776;23.112;2023-02-28T07:38:51;100.18;;;35.13;;
52104;SDS011;38103;42.776;23.112;2023-02-28T07:41:17;105.68;;;39.75;;
52104;SDS011;38103;42.776;23.112;2023-02-28T07:43:43;101.20;;;34.30;;
52104;SDS011;38103;42.776;23.112;2023-02-28T07:46:10;95.13;;;29.92;;
52104;SDS011;38103;42.776;23.112;2023-02-28T07:48:37;74.70;;;26.88;;
52104;SDS011;38103;42.776;23.112;2023-02-28T07:51:03;69.05;;;25.90;;
52104;SDS011;38103;42.776;23.112;2023-02-28T07:53:28;73.20;;;24.60;;
52104;SDS011;38103;42.776;23.112;2023-02-28T07:55:55;74.90;;;25.35;;
52104;SDS011;38103;42.776;23.112;2023-02-28T07:58:21;70.32;;;24.60;;
52104;SDS011;38103;42.776;23.112;2023-02-28T08:00:47;69.50;;;24.20;;
52104;SDS011;38103;42.776;23.112;2023-02-28T08:03:12;74.47;;;26.10;;
52104;SDS011;38103;42.776;23.112;2023-02-28T08:05:41;68.00;;;25.83;;
52104;SDS011;38103;42.776;23.112;2023-02-28T08:08:07;89.07;;;27.52;;
52104;SDS011;38103;42.776;23.112;2023-02-28T08:10:33;73.78;;;27.83;;
52104;SDS011;38103;42.776;23.112;2023-02-28T08:12:58;80.53;;;27.08;;
52104;SDS011;38103;42.776;23.112;2023-02-28T08:15:24;81.88;;;28.63;;
52104;SDS011;38103;42.776;23.112;2023-02-28T08:17:49;94.03;;;33.33;;
52104;SDS011;38103;42.776;23.112;2023-02-28T08:20:15;129.45;;;41.58;;
52104;SDS011;38103;42.776;23.112;2023-02-28T08:22:40;96.78;;;34.63;;
52104;SDS011;38103;42.776;23.112;2023-02-28T08:25:06;97.88;;;30.85;;
52104;SDS011;38103;42.776;23.112;2023-02-28T08:27:33;80.47;;;29.98;;
52104;SDS011;38103;42.776;23.112;2023-02-28T08:29:58;90.03;;;31.92;;
52104;SDS011;38103;42.776;23.112;2023-02-28T08:32:23;96.75;;;33.03;;
52104;SDS011;38103;42.776;23.112;2023-02-28T08:34:49;84.03;;;31.35;;
52104;SDS011;38103;42.776;23.112;2023-02-28T08:37:15;96.50;;;30.02;;
52104;SDS011;38103;42.776;23.112;2023-02-28T08:39:40;98.30;;;31.30;;
52104;SDS011;38103;42.776;23.112;2023-02-28T08:42:06;88.78;;;30.65;;
52104;SDS011;38103;42.776;23.112;2023-02-28T08:44:31;95.55;;;31.70;;
52104;SDS011;38103;42.776;23.112;2023-02-28T08:46:57;80.30;;;29.98;;
52104;SDS011;38103;42.776;23.112;2023-02-28T08:49:22;83.20;;;30.70;;
52104;SDS011;38103;42.776;23.112;2023-02-28T08:51:48;80.40;;;30.30;;
52104;SDS011;38103;42.776;23.112;2023-02-28T08:54:13;79.10;;;30.92;;
52104;SDS011;38103;42.776;23.112;2023-02-28T08:56:41;87.32;;;30.33;;
52104;SDS011;38103;42.776;23.112;2023-02-28T08:59:08;81.68;;;31.83;;
52104;SDS011;38103;42.776;23.112;2023-02-28T09:01:34;74.35;;;28.23;;
52104;SDS011;38103;42.776;23.112;2023-02-28T09:04:01;83.57;;;28.90;;
52104;SDS011;38103;42.776;23.112;2023-02-28T09:06:27;73.25;;;28.52;;
52104;SDS011;38103;42.776;23.112;2023-02-28T09:08:57;69.88;;;26.55;;
52104;SDS011;38103;42.776;23.112;2023-02-28T09:11:24;60.72;;;26.08;;
52104;SDS011;38103;42.776;23.112;2023-02-28T09:13:50;79.95;;;25.73;;
52104;SDS011;38103;42.776;23.112;2023-02-28T09:16:16;58.75;;;24.50;;
52104;SDS011;38103;42.776;23.112;2023-02-28T09:18:42;65.10;;;26.02;;
52104;SDS011;38103;42.776;23.112;2023-02-28T09:21:09;68.70;;;23.63;;
52104;SDS011;38103;42.776;23.112;2023-02-28T09:23:39;77.10;;;24.80;;
52104;SDS011;38103;42.776;23.112;2023-02-28T09:26:12;82.15;;;28.20;;
52104;SDS011;38103;42.776;23.112;2023-02-28T09:28:39;74.68;;;29.15;;
52104;SDS011;38103;42.776;23.112;2023-02-28T09:31:05;69.68;;;29.10;;
52104;SDS011;38103;42.776;23.112;2023-02-28T09:33:30;79.35;;;29.88;;
52104;SDS011;38103;42.776;23.112;2023-02-28T09:35:59;76.70;;;28.27;;
52104;SDS011;38103;42.776;23.112;2023-02-28T09:38:26;71.13;;;29.67;;
52104;SDS011;38103;42.776;23.112;2023-02-28T09:40:54;76.03;;;30.52;;
52104;SDS011;38103;42.776;23.112;2023-02-28T09:43:23;80.03;;;29.63;;
52104;SDS011;38103;42.776;23.112;2023-02-28T09:45:56;76.60;;;30.42;;
52104;SDS011;38103;42.776;23.112;2023-02-28T09:48:37;78.97;;;29.88;;
52104;SDS011;38103;42.776;23.112;2023-02-28T09:53:54;88.85;;;33.38;;
52104;SDS011;38103;42.776;23.112;2023-02-28T09:56:22;81.65;;;33.67;;
52104;SDS011;38103;42.776;23.112;2023-02-28T09:59:04;86.93;;;32.45;;
52104;SDS011;38103;42.776;23.112;2023-02-28T10:10:18;78.68;;;29.88;;
52104;SDS011;38103;42.776;23.112;2023-02-28T10:12:47;65.20;;;29.60;;
52104;SDS011;38103;42.776;23.112;2023-02-28T10:15:18;66.30;;;28.58;;
52104;SDS011;38103;42.776;23.112;2023-02-28T10:17:47;77.05;;;32.33;;
52104;SDS011;38103;42.776;23.112;2023-02-28T10:20:19;75.38;;;31.95;;
52104;SDS011;38103;42.776;23.112;2023-02-28T10:25:32;71.65;;;30.13;;
52104;SDS011;38103;42.776;23.112;2023-02-28T10:28:13;71.22;;;32.63;;
52104;SDS011;38103;42.776;23.112;2023-02-28T10:30:41;62.30;;;26.90;;
52104;SDS011;38103;42.776;23.112;2023-02-28T10:33:15;62.00;;;28.73;;
52104;SDS011;38103;42.776;23.112;2023-02-28T10:36:03;67.65;;;28.80;;
52104;SDS011;38103;42.776;23.112;2023-02-28T10:38:35;57.75;;;27.05;;
52104;SDS011;38103;42.776;23.112;2023-02-28T10:41:07;58.85;;;27.88;;
52104;SDS011;38103;42.776;23.112;2023-02-28T10:43:34;62.28;;;26.00;;
52104;SDS011;38103;42.776;23.112;2023-02-28T10:48:32;58.22;;;25.33;;
52104;SDS011;38103;42.776;23.112;2023-02-28T10:51:15;56.97;;;24.17;;
52104;SDS011;38103;42.776;23.112;2023-02-28T11:04:17;56.22;;;24.50;;
52104;SDS011;38103;42.776;23.112;2023-02-28T11:09:24;44.15;;;23.77;;
52104;SDS011;38103;42.776;23.112;2023-02-28T11:11:56;49.20;;;22.73;;
52104;SDS011;38103;42.776;23.112;2023-02-28T11:16:47;51.45;;;23.30;;
52104;SDS011;38103;42.776;23.112;2023-02-28T11:19:47;44.15;;;21.63;;
52104;SDS011;38103;42.776;23.112;2023-02-28T11:22:09;46.47;;;20.98;;
52104;SDS011;38103;42.776;23.112;2023-02-28T11:24:42;42.53;;;20.35;;
52104;SDS011;38103;42.776;23.112;2023-02-28T11:29:55;52.35;;;19.75;;
52104;SDS011;38103;42.776;23.112;2023-02-28T11:32:22;39.95;;;17.35;;
52104;SDS011;38103;42.776;23.112;2023-02-28T11:37:36;38.72;;;16.60;;
52104;SDS011;38103;42.776;23.112;2023-02-28T11:40:05;40.20;;;14.82;;
52104;SDS011;38103;42.776;23.112;2023-02-28T12:26:34;40.65;;;16.00;;
52104;SDS011;38103;42.776;23.112;2023-02-28T12:29:09;39.72;;;15.80;;
52104;SDS011;38103;42.776;23.112;2023-02-28T12:31:36;36.78;;;15.45;;
52104;SDS011;38103;42.776;23.112;2023-02-28T12:34:07;37.47;;;16.42;;
52104;SDS011;38103;42.776;23.112;2023-02-28T12:36:37;44.17;;;16.30;;
52104;SDS011;38103;42.776;23.112;2023-02-28T12:39:11;33.08;;;15.05;;
52104;SDS011;38103;42.776;23.112;2023-02-28T12:41:54;40.42;;;14.82;;
52104;SDS011;38103;42.776;23.112;2023-02-28T12:46:54;36.08;;;15.35;;
52104;SDS011;38103;42.776;23.112;2023-02-28T12:51:52;36.33;;;13.68;;
52104;SDS011;38103;42.776;23.112;2023-02-28T12:59:57;36.85;;;12.52;;
52104;SDS011;38103;42.776;23.112;2023-02-28T13:02:33;29.52;;;11.98;;
52104;SDS011;38103;42.776;23.112;2023-02-28T13:10:40;36.30;;;13.93;;
52104;SDS011;38103;42.776;23.112;2023-02-28T13:13:13;27.38;;;11.40;;
52104;SDS011;38103;42.776;23.112;2023-02-28T13:15:41;38.20;;;12.98;;
52104;SDS011;38103;42.776;23.112;2023-02-28T13:18:32;32.22;;;12.80;;
52104;SDS011;38103;42.776;23.112;2023-02-28T13:21:24;35.45;;;13.25;;
52104;SDS011;38103;42.776;23.112;2023-02-28T13:26:21;36.03;;;12.57;;
52104;SDS011;38103;42.776;23.112;2023-02-28T13:34:33;44.63;;;13.48;;
52104;SDS011;38103;42.776;23.112;2023-02-28T13:50:23;30.38;;;12.48;;
52104;SDS011;38103;42.776;23.112;2023-02-28T14:06:51;32.17;;;11.80;;
52104;SDS011;38103;42.776;23.112;2023-02-28T14:11:50;34.03;;;11.68;;
52104;SDS011;38103;42.776;23.112;2023-02-28T14:17:14;34.78;;;11.70;;
52104;SDS011;38103;42.776;23.112;2023-02-28T14:19:43;33.17;;;12.43;;
52104;SDS011;38103;42.776;23.112;2023-02-28T14:25:20;37.42;;;12.95;;
52104;SDS011;38103;42.776;23.112;2023-02-28T14:27:48;35.08;;;13.07;;
52104;SDS011;38103;42.776;23.112;2023-02-28T14:30:43;36.70;;;15.90;;
52104;SDS011;38103;42.776;23.112;2023-02-28T14:35:58;36.47;;;16.85;;
52104;SDS011;38103;42.776;23.112;2023-02-28T14:38:32;39.45;;;17.33;;
52104;SDS011;38103;42.776;23.112;2023-02-28T14:41:03;49.22;;;19.63;;
52104;SDS011;38103;42.776;23.112;2023-02-28T14:43:31;35.58;;;17.58;;
52104;SDS011;38103;42.776;23.112;2023-02-28T14:45:58;41.90;;;18.67;;
52104;SDS011;38103;42.776;23.112;2023-02-28T14:48:26;47.60;;;16.85;;
52104;SDS011;38103;42.776;23.112;2023-02-28T14:50:56;45.05;;;17.73;;
52104;SDS011;38103;42.776;23.112;2023-02-28T14:53:25;40.20;;;17.98;;
52104;SDS011;38103;42.776;23.112;2023-02-28T14:55:53;34.47;;;17.60;;
52104;SDS011;38103;42.776;23.112;2023-02-28T15:00:48;37.78;;;15.95;;
52104;SDS011;38103;42.776;23.112;2023-02-28T15:03:22;36.08;;;16.65;;
52104;SDS011;38103;42.776;23.112;2023-02-28T15:05:51;31.83;;;14.95;;
52104;SDS011;38103;42.776;23.112;2023-02-28T15:08:18;35.78;;;15.95;;
52104;SDS011;38103;42.776;23.112;2023-02-28T15:10:58;32.45;;;15.32;;
52104;SDS011;38103;42.776;23.112;2023-02-28T15:16:12;32.35;;;13.77;;
52104;SDS011;38103;42.776;23.112;2023-02-28T15:21:18;30.92;;;13.57;;
52104;SDS011;38103;42.776;23.112;2023-02-28T15:26:49;36.38;;;14.30;;
52104;SDS011;38103;42.776;23.112;2023-02-28T15:29:21;29.50;;;12.53;;
52104;SDS011;38103;42.776;23.112;2023-02-28T15:31:50;28.25;;;12.30;;
52104;SDS011;38103;42.776;23.112;2023-02-28T15:34:36;26.58;;;11.55;;
52104;SDS011;38103;42.776;23.112;2023-02-28T15:39:57;28.00;;;11.55;;
52104;SDS011;38103;42.776;23.112;2023-02-28T15:42:29;27.73;;;11.27;;
52104;SDS011;38103;42.776;23.112;2023-02-28T15:44:56;27.27;;;12.90;;
52104;SDS011;38103;42.776;23.112;2023-02-28T15:47:23;27.83;;;13.02;;
52104;SDS011;38103;42.776;23.112;2023-02-28T15:49:54;29.23;;;12.82;;
52104;SDS011;38103;42.776;23.112;2023-02-28T15:52:39;28.05;;;13.10;;
52104;SDS011;38103;42.776;23.112;2023-02-28T15:57:44;27.85;;;12.27;;
52104;SDS011;38103;42.776;23.112;2023-02-28T16:00:11;26.63;;;11.73;;
52104;SDS011;38103;42.776;23.112;2023-02-28T16:02:39;24.65;;;11.27;;
52104;SDS011;38103;42.776;23.112;2023-02-28T16:07:31;26.00;;;10.55;;
52104;SDS011;38103;42.776;23.112;2023-02-28T16:09:57;23.15;;;9.90;;
52104;SDS011;38103;42.776;23.112;2023-02-28T16:12:25;33.28;;;12.50;;
52104;SDS011;38103;42.776;23.112;2023-02-28T16:14:56;26.67;;;10.38;;
52104;SDS011;38103;42.776;23.112;2023-02-28T16:17:27;20.42;;;9.95;;
52104;SDS011;38103;42.776;23.112;2023-02-28T16:19:54;24.75;;;10.18;;
52104;SDS011;38103;42.776;23.112;2023-02-28T16:22:21;25.48;;;10.50;;
52104;SDS011;38103;42.776;23.112;2023-02-28T16:24:47;36.92;;;10.18;;
52104;SDS011;38103;42.776;23.112;2023-02-28T16:27:24;21.60;;;9.20;;
52104;SDS011;38103;42.776;23.112;2023-02-28T16:29:55;23.38;;;8.30;;
52104;SDS011;38103;42.776;23.112;2023-02-28T16:32:21;23.50;;;9.70;;
52104;SDS011;38103;42.776;23.112;2023-02-28T16:34:46;21.67;;;8.43;;
52104;SDS011;38103;42.776;23.112;2023-02-28T16:37:15;25.40;;;8.32;;
52104;SDS011;38103;42.776;23.112;2023-02-28T16:39:42;17.13;;;8.13;;
52104;SDS011;38103;42.776;23.112;2023-02-28T16:42:20;23.25;;;8.05;;
52104;SDS011;38103;42.776;23.112;2023-02-28T16:44:48;18.27;;;8.02;;
52104;SDS011;38103;42.776;23.112;2023-02-28T16:47:14;22.17;;;8.55;;
52104;SDS011;38103;42.776;23.112;2023-02-28T16:49:39;24.52;;;7.90;;
52104;SDS011;38103;42.776;23.112;2023-02-28T16:52:08;21.65;;;8.35;;
52104;SDS011;38103;42.776;23.112;2023-02-28T16:54:35;23.40;;;8.45;;
52104;SDS011;38103;42.776;23.112;2023-02-28T16:57:00;22.88;;;7.65;;
52104;SDS011;38103;42.776;23.112;2023-02-28T16:59:26;22.58;;;7.80;;
52104;SDS011;38103;42.776;23.112;2023-02-28T17:01:53;20.23;;;6.68;;
52104;SDS011;38103;42.776;23.112;2023-02-28T17:04:19;18.33;;;6.47;;
52104;SDS011;38103;42.776;23.112;2023-02-28T17:06:44;16.88;;;6.88;;
52104;SDS011;38103;42.776;23.112;2023-02-28T17:09:14;16.40;;;5.93;;
52104;SDS011;38103;42.776;23.112;2023-02-28T17:11:42;18.17;;;6.47;;
52104;SDS011;38103;42.776;23.112;2023-02-28T17:14:07;20.15;;;6.43;;
52104;SDS011;38103;42.776;23.112;2023-02-28T17:16:33;20.98;;;6.22;;
52104;SDS011;38103;42.776;23.112;2023-02-28T17:19:03;15.60;;;5.65;;
52104;SDS011;38103;42.776;23.112;2023-02-28T17:21:31;16.25;;;6.47;;
52104;SDS011;38103;42.776;23.112;2023-02-28T17:23:57;18.23;;;5.68;;
52104;SDS011;38103;42.776;23.112;2023-02-28T17:26:23;18.00;;;5.95;;
52104;SDS011;38103;42.776;23.112;2023-02-28T17:28:52;17.77;;;7.40;;
52104;SDS011;38103;42.776;23.112;2023-02-28T17:31:20;20.15;;;6.85;;
52104;SDS011;38103;42.776;23.112;2023-02-28T17:33:46;22.50;;;7.32;;
52104;SDS011;38103;42.776;23.112;2023-02-28T17:36:22;17.20;;;6.93;;
52104;SDS011;38103;42.776;23.112;2023-02-28T17:38:51;19.92;;;7.35;;
52104;SDS011;38103;42.776;23.112;2023-02-28T17:41:18;20.40;;;8.02;;